Time;durP1;ratioP1;P1;durP2;ratioP2;P2;SDS_P1;SDS_P2;PMS_P1;PMS_P2;Temp;Humidity;BMP_temperature;BMP_pressure;BME280_temperature;BME280_humidity;BME280_pressure;Samples;Min_cycle;Max_cycle;Signal;HPM_P1;HPM_P2
2021/11/29 00:01:44;;;;;;;16.92;10.18;;;4.10;99.90;;;;;;5073136;28;20025;-63
2021/11/29 00:04:10;;;;;;;16.40;11.68;;;4.10;99.90;;;;;;5073378;28;20020;-62
2021/11/29 00:06:36;;;;;;;19.55;11.35;;;4.10;99.90;;;;;;5072650;28;20481;-63
2021/11/29 00:09:02;;;;;;;19.00;11.38;;;4.20;99.90;;;;;;5073917;28;20407;-63
2021/11/29 00:11:27;;;;;;;20.23;10.13;;;4.10;99.90;;;;;;5073098;28;20021;-62
2021/11/29 00:13:53;;;;;;;18.50;11.60;;;4.10;99.90;;;;;;5072792;28;20371;-63
2021/11/29 00:16:19;;;;;;;18.88;11.02;;;4.10;99.90;;;;;;5073349;28;20047;-63
2021/11/29 00:18:44;;;;;;;17.58;11.43;;;4.10;99.90;;;;;;5072665;28;20060;-63
2021/11/29 00:21:11;;;;;;;17.58;11.23;;;4.10;99.90;;;;;;5072969;28;20135;-62
2021/11/29 00:23:37;;;;;;;15.65;10.70;;;4.10;99.90;;;;;;5072708;28;20025;-63
2021/11/29 00:26:04;;;;;;;14.00;10.48;;;4.10;99.90;;;;;;5055282;28;20048;-63
2021/11/29 00:28:29;;;;;;;17.30;11.07;;;4.10;99.90;;;;;;5055051;28;20489;-63
2021/11/29 00:30:55;;;;;;;16.80;10.90;;;4.00;99.90;;;;;;5072415;28;20025;-62
2021/11/29 00:33:22;;;;;;;14.52;10.25;;;4.10;99.90;;;;;;5072342;28;20029;-62
2021/11/29 00:35:48;;;;;;;17.80;10.52;;;4.10;99.90;;;;;;5072264;28;20472;-63
2021/11/29 00:38:14;;;;;;;18.25;10.90;;;4.10;99.90;;;;;;5072652;28;20028;-63
2021/11/29 00:40:40;;;;;;;16.10;10.88;;;4.10;99.90;;;;;;5054207;28;20116;-63
2021/11/29 00:43:06;;;;;;;16.08;10.63;;;4.20;99.90;;;;;;5054845;28;20470;-62
2021/11/29 00:45:33;;;;;;;14.70;9.32;;;4.30;99.90;;;;;;5072743;28;20025;-65
2021/11/29 00:47:58;;;;;;;17.13;10.30;;;4.30;99.90;;;;;;5071853;28;20086;-63
2021/11/29 00:50:25;;;;;;;17.10;10.05;;;4.30;99.90;;;;;;5072804;28;20100;-62
2021/11/29 00:52:50;;;;;;;14.85;10.35;;;4.40;99.90;;;;;;5054179;28;20035;-62
2021/11/29 00:55:18;;;;;;;16.02;10.98;;;4.40;99.90;;;;;;5071864;28;20033;-62
2021/11/29 00:57:44;;;;;;;16.95;11.35;;;4.40;99.90;;;;;;5071776;28;20036;-63
2021/11/29 01:00:14;;;;;;;15.07;10.27;;;4.50;99.90;;;;;;5072021;28;20032;-62
2021/11/29 01:02:40;;;;;;;18.23;11.98;;;4.50;99.90;;;;;;5053754;28;20025;-62
2021/11/29 01:05:06;;;;;;;19.30;12.00;;;4.60;99.90;;;;;;5072532;28;20055;-62
2021/11/29 01:07:32;;;;;;;18.15;10.95;;;4.60;99.90;;;;;;5054291;28;20438;-62
2021/11/29 01:09:57;;;;;;;17.20;11.18;;;4.60;99.90;;;;;;5071810;28;20123;-62
2021/11/29 01:12:23;;;;;;;16.02;11.02;;;4.50;99.90;;;;;;5072243;28;20532;-62
2021/11/29 01:14:49;;;;;;;17.40;11.57;;;4.50;99.90;;;;;;5071647;28;20024;-63
2021/11/29 01:17:15;;;;;;;14.27;10.60;;;4.50;99.90;;;;;;5053902;28;20093;-66
2021/11/29 01:19:41;;;;;;;18.40;11.98;;;4.50;99.90;;;;;;5071662;28;20052;-63
2021/11/29 01:22:07;;;;;;;16.65;11.40;;;4.30;99.90;;;;;;5071731;28;20391;-62
2021/11/29 01:24:33;;;;;;;18.05;12.02;;;4.40;99.90;;;;;;5072117;28;20028;-62
2021/11/29 01:26:58;;;;;;;19.75;11.57;;;4.40;99.90;;;;;;5071073;28;20028;-62
2021/11/29 01:29:24;;;;;;;16.83;11.80;;;4.40;99.90;;;;;;5054058;28;20126;-62
2021/11/29 01:31:50;;;;;;;19.67;13.35;;;4.40;99.90;;;;;;5053311;28;20031;-62
2021/11/29 01:34:16;;;;;;;21.23;14.13;;;4.40;99.90;;;;;;5053922;28;20020;-62
2021/11/29 01:36:42;;;;;;;18.85;12.50;;;4.30;99.90;;;;;;5053445;28;20029;-62
2021/11/29 01:39:09;;;;;;;21.23;13.27;;;4.30;99.90;;;;;;5053978;28;20031;-61
2021/11/29 01:41:36;;;;;;;23.10;14.25;;;4.30;99.90;;;;;;5047253;28;20170;-62
2021/11/29 01:44:02;;;;;;;21.30;14.45;;;4.40;99.90;;;;;;5071206;28;20029;-62
2021/11/29 01:46:28;;;;;;;25.13;14.98;;;4.40;99.90;;;;;;5059642;28;20036;-62
2021/11/29 01:48:55;;;;;;;25.63;14.88;;;4.40;99.90;;;;;;5070975;28;20036;-63
2021/11/29 01:51:21;;;;;;;23.83;13.30;;;4.50;99.90;;;;;;5071553;28;20185;-62
2021/11/29 01:53:46;;;;;;;23.77;15.63;;;4.50;99.90;;;;;;5053045;28;20064;-61
2021/11/29 01:56:12;;;;;;;24.13;13.95;;;4.50;99.90;;;;;;5053393;28;20032;-62
2021/11/29 01:58:39;;;;;;;26.40;15.73;;;4.50;99.90;;;;;;5053621;28;20035;-62
2021/11/29 02:01:32;;;;;;;26.80;15.68;;;4.50;99.90;;;;;;5052915;28;20028;-61
2021/11/29 02:03:59;;;;;;;25.60;14.93;;;4.50;99.90;;;;;;5067450;28;20402;-63
2021/11/29 02:06:29;;;;;;;25.27;15.45;;;4.40;99.90;;;;;;5070604;28;20029;-62
2021/11/29 02:08:56;;;;;;;26.35;16.23;;;4.50;99.90;;;;;;5052802;28;20025;-62
2021/11/29 02:11:23;;;;;;;24.60;15.32;;;4.50;99.90;;;;;;5053436;28;20025;-62
2021/11/29 02:13:49;;;;;;;27.05;16.30;;;4.40;99.90;;;;;;5070477;28;20044;-63
2021/11/29 02:16:16;;;;;;;24.85;15.65;;;4.40;99.90;;;;;;5071387;28;20033;-63
2021/11/29 02:18:42;;;;;;;21.85;14.10;;;4.40;99.90;;;;;;5053255;28;20470;-63
2021/11/29 02:21:18;;;;;;;24.95;15.38;;;4.50;99.90;;;;;;5071165;28;20025;-62
2021/11/29 02:23:47;;;;;;;24.50;15.07;;;4.40;99.90;;;;;;5052416;28;20028;-63
2021/11/29 02:26:14;;;;;;;32.50;15.25;;;4.50;99.90;;;;;;5071242;28;20037;-62
2021/11/29 02:28:43;;;;;;;23.05;13.82;;;4.50;99.90;;;;;;5071355;28;20048;-62
2021/11/29 02:31:11;;;;;;;21.50;13.85;;;4.70;99.90;;;;;;5071293;28;20100;-62
2021/11/29 02:33:37;;;;;;;17.75;11.27;;;4.50;99.90;;;;;;5071240;28;20063;-61
2021/11/29 02:36:04;;;;;;;18.77;11.40;;;4.50;99.90;;;;;;5070650;28;20064;-62
2021/11/29 02:38:30;;;;;;;20.38;12.13;;;4.50;99.90;;;;;;5071115;28;20127;-62
2021/11/29 02:40:56;;;;;;;15.20;10.35;;;4.50;99.90;;;;;;5052493;28;20043;-62
2021/11/29 02:43:21;;;;;;;15.77;10.45;;;4.50;99.90;;;;;;5053181;28;20473;-62
2021/11/29 02:45:47;;;;;;;14.38;8.98;;;4.50;99.90;;;;;;5052450;28;20027;-62
2021/11/29 02:48:13;;;;;;;14.45;9.50;;;4.50;99.90;;;;;;5071115;28;20028;-61
2021/11/29 02:50:38;;;;;;;12.77;8.15;;;4.50;99.90;;;;;;5070777;28;20102;-62
2021/11/29 02:53:07;;;;;;;10.38;7.18;;;4.50;99.90;;;;;;5070428;28;20664;-62
2021/11/29 02:55:33;;;;;;;11.38;7.57;;;4.50;99.90;;;;;;5070653;28;20035;-62
2021/11/29 02:57:59;;;;;;;13.85;8.20;;;4.60;99.90;;;;;;5070032;28;20116;-62
2021/11/29 03:00:25;;;;;;;11.35;7.60;;;4.60;99.90;;;;;;5070520;28;20029;-62
2021/11/29 03:03:09;;;;;;;12.00;7.18;;;4.50;99.90;;;;;;5052241;28;20024;-62
2021/11/29 03:05:36;;;;;;;11.70;6.57;;;4.50;99.90;;;;;;5070890;28;20020;-62
2021/11/29 03:08:02;;;;;;;10.10;6.53;;;4.50;99.90;;;;;;5070318;28;20115;-62
2021/11/29 03:10:29;;;;;;;12.45;6.90;;;4.40;99.90;;;;;;5052765;28;20036;-62
2021/11/29 03:12:55;;;;;;;7.75;5.10;;;4.30;99.90;;;;;;5070309;28;20021;-62
2021/11/29 03:15:20;;;;;;;8.60;5.85;;;4.30;99.90;;;;;;5052740;28;20385;-62
2021/11/29 03:17:47;;;;;;;10.85;5.53;;;4.40;99.90;;;;;;5053741;28;20482;-64
2021/11/29 03:20:13;;;;;;;10.13;5.25;;;4.30;99.90;;;;;;5074067;28;20031;-62
2021/11/29 03:22:39;;;;;;;8.02;5.80;;;4.30;99.90;;;;;;5073810;28;20110;-62
2021/11/29 03:25:06;;;;;;;9.45;5.03;;;4.30;99.90;;;;;;5073272;28;20443;-62
2021/11/29 03:27:31;;;;;;;9.93;5.45;;;4.20;99.90;;;;;;5056278;28;20028;-62
2021/11/29 03:29:57;;;;;;;6.45;4.38;;;4.20;99.90;;;;;;5055675;28;20034;-62
2021/11/29 03:32:23;;;;;;;7.72;4.72;;;4.10;99.90;;;;;;5073953;28;20107;-62
2021/11/29 03:34:49;;;;;;;7.70;5.00;;;4.20;99.90;;;;;;5055582;28;20032;-63
2021/11/29 03:37:18;;;;;;;7.55;4.95;;;4.30;99.90;;;;;;5073834;28;20037;-62
2021/11/29 03:39:44;;;;;;;7.78;5.13;;;4.10;99.90;;;;;;5073590;28;20030;-62
2021/11/29 03:42:10;;;;;;;8.95;5.75;;;4.20;99.90;;;;;;5073054;28;20028;-62
2021/11/29 03:44:37;;;;;;;11.88;5.25;;;4.20;99.90;;;;;;5073814;28;20144;-62
2021/11/29 03:47:06;;;;;;;8.43;4.75;;;4.20;99.90;;;;;;5073099;28;20036;-62
2021/11/29 03:49:32;;;;;;;9.65;5.05;;;4.20;99.90;;;;;;5074124;28;20032;-62
2021/11/29 03:51:58;;;;;;;8.93;5.15;;;4.20;99.90;;;;;;5055287;28;20054;-62
2021/11/29 03:54:24;;;;;;;8.73;5.10;;;4.30;99.90;;;;;;5073897;28;20417;-61
2021/11/29 03:56:50;;;;;;;12.57;5.25;;;4.20;99.90;;;;;;5054981;28;20069;-63
2021/11/29 03:59:16;;;;;;;11.20;4.90;;;4.10;99.90;;;;;;5055790;28;20028;-62
2021/11/29 04:01:43;;;;;;;8.05;4.70;;;4.00;99.90;;;;;;5055463;28;20024;-62
2021/11/29 04:04:08;;;;;;;7.18;4.25;;;4.00;99.90;;;;;;5072800;28;20590;-62
2021/11/29 04:06:35;;;;;;;10.75;4.18;;;4.10;99.90;;;;;;5055198;28;20051;-62
2021/11/29 04:09:03;;;;;;;9.60;4.95;;;4.10;99.90;;;;;;5072676;28;20066;-62
2021/11/29 04:11:28;;;;;;;8.18;4.60;;;4.10;99.90;;;;;;5073526;28;20025;-62
2021/11/29 04:13:54;;;;;;;9.73;4.30;;;4.10;99.90;;;;;;5054806;28;20386;-62
2021/11/29 04:16:20;;;;;;;9.23;4.70;;;4.10;99.90;;;;;;5071533;28;20033;-62
2021/11/29 04:18:46;;;;;;;7.90;4.57;;;4.20;99.90;;;;;;5073303;28;20462;-62
2021/11/29 04:21:14;;;;;;;12.95;4.15;;;4.20;99.90;;;;;;5072387;28;20078;-62
2021/11/29 04:23:43;;;;;;;8.48;4.30;;;4.10;99.90;;;;;;5073227;28;20104;-62
2021/11/29 04:26:10;;;;;;;8.80;3.85;;;4.20;99.90;;;;;;5072620;28;20040;-63
2021/11/29 04:28:36;;;;;;;8.13;4.00;;;4.10;99.90;;;;;;5054244;28;20048;-63
2021/11/29 04:31:02;;;;;;;7.30;4.30;;;4.00;99.90;;;;;;5072456;28;20430;-63
2021/11/29 04:33:27;;;;;;;8.00;4.18;;;4.10;99.90;;;;;;5055061;28;20452;-62
2021/11/29 04:35:53;;;;;;;9.63;3.85;;;4.10;99.90;;;;;;5072191;28;20082;-63
2021/11/29 04:38:19;;;;;;;7.13;3.88;;;4.00;99.90;;;;;;5072466;28;20113;-63
2021/11/29 04:40:45;;;;;;;6.13;3.30;;;3.90;99.90;;;;;;5054830;28;20024;-63
2021/11/29 04:43:11;;;;;;;5.13;3.42;;;4.00;99.90;;;;;;5072003;28;20103;-63
2021/11/29 04:45:36;;;;;;;6.70;3.33;;;4.00;99.90;;;;;;5072762;28;20094;-62
2021/11/29 04:48:02;;;;;;;7.72;3.85;;;4.00;99.90;;;;;;5071555;28;20134;-62
2021/11/29 04:50:28;;;;;;;9.35;4.47;;;4.00;99.90;;;;;;5072699;28;20037;-62
2021/11/29 04:52:53;;;;;;;8.95;3.67;;;4.00;99.90;;;;;;5071842;28;20033;-63
2021/11/29 04:55:19;;;;;;;10.70;3.75;;;3.90;99.90;;;;;;5072250;28;20021;-63
2021/11/29 04:57:45;;;;;;;11.45;4.57;;;3.90;99.90;;;;;;5054553;28;20040;-62
2021/11/29 05:00:12;;;;;;;7.70;3.70;;;3.90;99.90;;;;;;5053922;28;20021;-61
2021/11/29 05:02:38;;;;;;;5.38;3.30;;;3.90;99.90;;;;;;5054468;28;20036;-62
2021/11/29 05:05:05;;;;;;;6.97;4.05;;;3.90;99.90;;;;;;5071436;28;20024;-60
2021/11/29 05:07:31;;;;;;;8.07;3.72;;;4.00;99.90;;;;;;5071994;28;20056;-62
2021/11/29 05:09:57;;;;;;;11.43;4.30;;;3.80;99.90;;;;;;5071531;28;20384;-62
2021/11/29 05:12:23;;;;;;;6.90;4.07;;;3.80;99.90;;;;;;5054059;28;20028;-62
2021/11/29 05:14:48;;;;;;;7.30;3.33;;;3.90;99.90;;;;;;5054265;28;20021;-62
2021/11/29 05:17:16;;;;;;;9.98;4.07;;;3.80;99.90;;;;;;5053196;28;20048;-63
2021/11/29 05:19:41;;;;;;;8.25;3.95;;;3.80;99.90;;;;;;5071720;28;20055;-62
2021/11/29 05:22:07;;;;;;;4.90;3.53;;;3.80;99.90;;;;;;5071092;28;20419;-62
2021/11/29 05:24:33;;;;;;;8.73;4.10;;;3.80;99.90;;;;;;5037330;28;20395;-62
2021/11/29 05:26:59;;;;;;;9.27;3.90;;;3.90;99.90;;;;;;5071540;28;20060;-62
2021/11/29 05:29:25;;;;;;;7.80;4.63;;;3.80;99.90;;;;;;5072058;28;20082;-62
2021/11/29 05:31:51;;;;;;;8.45;4.68;;;3.80;99.90;;;;;;5053821;28;20028;-62
2021/11/29 05:34:18;;;;;;;10.82;5.35;;;3.70;99.90;;;;;;5071193;28;20043;-62
2021/11/29 05:36:44;;;;;;;11.32;5.75;;;3.70;99.90;;;;;;5053316;28;20090;-62
2021/11/29 05:39:09;;;;;;;11.82;5.60;;;3.60;99.90;;;;;;5071090;28;20024;-62
2021/11/29 05:41:35;;;;;;;10.00;5.70;;;3.60;99.90;;;;;;5053467;28;20024;-62
2021/11/29 05:44:01;;;;;;;8.13;6.00;;;3.60;99.90;;;;;;5052925;28;20528;-62
2021/11/29 05:46:26;;;;;;;9.68;6.20;;;3.60;99.90;;;;;;5053148;28;20036;-62
2021/11/29 05:48:52;;;;;;;9.38;6.15;;;3.50;99.90;;;;;;5071606;28;20485;-62
2021/11/29 05:51:19;;;;;;;10.25;6.75;;;3.50;99.90;;;;;;5070970;28;20032;-62
2021/11/29 05:53:45;;;;;;;10.90;6.57;;;3.50;99.90;;;;;;5071396;28;20172;-62
2021/11/29 05:56:11;;;;;;;10.38;6.88;;;3.50;99.90;;;;;;5052657;28;20143;-63
2021/11/29 05:58:36;;;;;;;9.60;6.05;;;3.50;99.90;;;;;;5053215;28;20462;-63
2021/11/29 06:01:03;;;;;;;13.20;7.60;;;3.40;99.90;;;;;;5070840;28;20028;-62
2021/11/29 06:03:29;;;;;;;13.93;7.03;;;3.40;99.90;;;;;;5071470;28;20370;-63
2021/11/29 06:05:55;;;;;;;11.05;7.85;;;3.30;99.90;;;;;;5053205;28;20472;-62
2021/11/29 06:08:21;;;;;;;13.85;7.65;;;3.20;99.90;;;;;;5070498;28;20074;-62
2021/11/29 06:10:47;;;;;;;15.65;8.32;;;3.20;99.90;;;;;;5070933;28;20024;-63
2021/11/29 06:13:13;;;;;;;15.57;7.63;;;3.10;99.90;;;;;;5071028;28;20053;-62
2021/11/29 06:15:38;;;;;;;16.17;8.98;;;3.10;99.90;;;;;;5070797;28;20067;-62
2021/11/29 06:18:04;;;;;;;18.38;9.60;;;3.20;99.90;;;;;;5070426;28;20045;-62
2021/11/29 06:20:30;;;;;;;15.70;9.45;;;3.10;99.90;;;;;;5070622;28;20059;-63
2021/11/29 06:22:56;;;;;;;16.23;9.85;;;3.20;99.90;;;;;;5070689;28;20052;-63
2021/11/29 06:25:23;;;;;;;17.80;10.38;;;3.20;99.90;;;;;;5052352;28;20050;-62
2021/11/29 06:27:49;;;;;;;18.27;11.38;;;3.30;99.90;;;;;;5052789;28;20041;-62
2021/11/29 06:30:16;;;;;;;18.08;11.00;;;3.20;99.90;;;;;;5070028;28;20027;-61
2021/11/29 06:32:42;;;;;;;18.70;10.93;;;3.20;99.90;;;;;;5070321;28;20032;-61
2021/11/29 06:35:08;;;;;;;18.55;11.32;;;3.30;99.90;;;;;;5070521;28;20025;-63
2021/11/29 06:37:35;;;;;;;22.40;10.98;;;3.10;99.90;;;;;;5052645;28;20033;-62
2021/11/29 06:40:02;;;;;;;21.17;12.05;;;3.20;99.90;;;;;;5069682;28;20028;-63
2021/11/29 06:42:27;;;;;;;19.98;11.90;;;3.20;99.90;;;;;;5069617;28;20488;-62
2021/11/29 06:44:54;;;;;;;17.85;10.73;;;3.20;99.90;;;;;;5070678;28;20033;-62
2021/11/29 06:47:20;;;;;;;18.92;11.80;;;3.10;99.90;;;;;;5070008;28;20032;-62
2021/11/29 06:49:46;;;;;;;18.10;12.70;;;3.10;99.90;;;;;;5070577;28;20043;-63
2021/11/29 06:52:12;;;;;;;20.95;11.05;;;3.20;99.90;;;;;;5070101;28;20031;-64
2021/11/29 06:54:38;;;;;;;27.90;12.40;;;3.20;99.90;;;;;;5056118;28;20033;-63
2021/11/29 06:57:05;;;;;;;19.83;10.98;;;3.30;99.90;;;;;;5055446;28;20036;-63
2021/11/29 06:59:32;;;;;;;23.90;12.05;;;3.20;99.90;;;;;;5074316;28;20111;-62
2021/11/29 07:01:58;;;;;;;23.02;12.40;;;3.20;99.90;;;;;;5074166;28;20032;-62
2021/11/29 07:04:24;;;;;;;22.92;12.27;;;3.20;99.90;;;;;;5055197;28;20363;-63
2021/11/29 07:06:51;;;;;;;21.90;12.55;;;3.30;99.90;;;;;;5074523;28;20028;-62
2021/11/29 07:09:16;;;;;;;21.90;11.45;;;3.30;99.90;;;;;;5073703;28;20028;-62
2021/11/29 07:11:42;;;;;;;20.13;12.10;;;3.10;99.90;;;;;;5074012;28;20086;-62
2021/11/29 07:14:08;;;;;;;20.13;11.85;;;3.20;99.90;;;;;;5054701;28;20028;-62
2021/11/29 07:16:35;;;;;;;21.33;11.82;;;3.10;99.90;;;;;;5073390;28;20078;-63
2021/11/29 07:19:03;;;;;;;23.40;12.07;;;3.10;99.90;;;;;;5073017;28;20032;-64
2021/11/29 07:21:28;;;;;;;24.35;13.82;;;3.00;99.90;;;;;;5075343;28;20052;-62
2021/11/29 07:23:54;;;;;;;20.17;12.63;;;3.10;99.90;;;;;;5086618;28;20036;-62
2021/11/29 07:26:20;;;;;;;18.10;12.43;;;3.20;99.90;;;;;;5059495;28;20469;-62
2021/11/29 07:28:46;;;;;;;24.17;11.05;;;3.20;99.90;;;;;;5093139;28;20400;-60
2021/11/29 07:31:11;;;;;;;19.13;12.18;;;3.50;99.90;;;;;;5074392;28;20038;-61
2021/11/29 07:33:37;;;;;;;16.58;11.25;;;3.80;99.90;;;;;;5094112;28;20064;-61
2021/11/29 07:36:03;;;;;;;17.98;11.55;;;3.70;99.90;;;;;;5092924;28;20047;-64
2021/11/29 07:38:28;;;;;;;22.98;11.38;;;3.60;99.90;;;;;;5086231;28;20024;-62
2021/11/29 07:40:54;;;;;;;18.55;11.18;;;3.50;99.90;;;;;;5055709;28;20032;-62
2021/11/29 07:43:20;;;;;;;16.58;10.55;;;3.60;99.90;;;;;;5072974;28;20137;-62
2021/11/29 07:45:46;;;;;;;16.00;10.32;;;4.10;99.90;;;;;;5072962;28;20462;-63
2021/11/29 07:48:12;;;;;;;17.67;9.48;;;4.80;99.90;;;;;;5054900;28;20041;-61
2021/11/29 07:50:38;;;;;;;17.08;10.15;;;5.10;99.90;;;;;;5073302;28;20032;-62
2021/11/29 07:53:04;;;;;;;19.08;9.05;;;5.50;99.90;;;;;;5053608;28;20020;-63
2021/11/29 07:55:30;;;;;;;23.10;11.73;;;5.20;99.90;;;;;;5072747;28;20024;-61
2021/11/29 07:57:59;;;;;;;23.88;13.55;;;6.00;99.90;;;;;;5072184;28;20040;-61
2021/11/29 08:00:28;;;;;;;17.17;10.95;;;7.40;99.90;;;;;;5072234;28;20166;-62
2021/11/29 08:02:56;;;;;;;14.70;9.50;;;6.50;99.90;;;;;;5054642;28;20059;-62
2021/11/29 08:05:23;;;;;;;15.50;10.20;;;5.60;99.90;;;;;;5054207;28;20488;-63
2021/11/29 08:07:51;;;;;;;16.58;9.82;;;5.10;99.90;;;;;;5073165;28;20032;-63
2021/11/29 08:10:17;;;;;;;17.15;10.20;;;4.70;99.90;;;;;;5071988;28;20167;-62
2021/11/29 08:12:43;;;;;;;18.90;9.88;;;4.70;99.90;;;;;;5081741;28;20092;-62
2021/11/29 08:15:09;;;;;;;16.80;11.10;;;5.10;99.90;;;;;;5071262;28;20102;-61
2021/11/29 08:17:35;;;;;;;16.52;9.73;;;5.20;99.90;;;;;;5067919;28;20078;-62
2021/11/29 08:20:02;;;;;;;16.77;8.93;;;5.10;99.90;;;;;;5078968;28;20036;-62
2021/11/29 08:22:29;;;;;;;16.27;9.15;;;5.40;99.90;;;;;;5070324;28;20144;-62
2021/11/29 08:24:55;;;;;;;13.45;8.90;;;5.50;99.90;;;;;;5070598;28;20028;-61
2021/11/29 08:27:21;;;;;;;17.90;10.13;;;5.30;99.90;;;;;;5072200;28;20029;-62
2021/11/29 08:29:46;;;;;;;13.27;9.10;;;5.10;99.90;;;;;;5072025;28;20424;-61
2021/11/29 08:32:12;;;;;;;15.10;9.73;;;5.10;99.90;;;;;;5071795;28;20110;-63
2021/11/29 08:34:39;;;;;;;12.77;9.70;;;5.00;99.90;;;;;;5072419;28;20078;-62
2021/11/29 08:37:06;;;;;;;21.98;10.32;;;5.00;99.90;;;;;;5071218;28;20496;-62
2021/11/29 08:39:32;;;;;;;16.67;9.70;;;4.90;99.90;;;;;;5071278;28;20100;-62
2021/11/29 08:41:58;;;;;;;18.65;9.90;;;4.90;99.90;;;;;;5070575;28;20533;-63
2021/11/29 08:44:24;;;;;;;19.63;10.60;;;4.90;99.90;;;;;;5069573;28;20077;-62
2021/11/29 08:46:50;;;;;;;18.20;9.73;;;4.90;99.90;;;;;;5092085;28;20320;-62
2021/11/29 08:49:17;;;;;;;12.63;9.57;;;4.70;99.90;;;;;;5073317;28;20444;-62
2021/11/29 08:51:43;;;;;;;13.25;9.40;;;4.60;99.90;;;;;;5092201;28;20031;-62
2021/11/29 08:54:10;;;;;;;17.70;11.13;;;4.50;99.90;;;;;;5073370;28;20371;-63
2021/11/29 08:56:35;;;;;;;16.23;10.27;;;4.60;99.90;;;;;;5092256;28;20202;-63
2021/11/29 08:59:01;;;;;;;14.82;9.10;;;4.70;99.90;;;;;;5092250;28;20446;-63
2021/11/29 09:01:27;;;;;;;18.65;10.65;;;4.70;99.90;;;;;;5091635;28;20258;-63
2021/11/29 09:03:53;;;;;;;13.98;8.93;;;4.60;99.90;;;;;;5074220;28;20377;-63
2021/11/29 09:06:19;;;;;;;15.77;9.13;;;4.60;99.90;;;;;;5091382;28;20050;-62
2021/11/29 09:08:45;;;;;;;16.38;9.40;;;4.70;99.90;;;;;;5066653;28;20035;-62
2021/11/29 09:11:11;;;;;;;21.08;9.30;;;4.90;99.90;;;;;;5082531;28;20481;-62
2021/11/29 09:13:37;;;;;;;10.68;7.50;;;5.80;99.90;;;;;;5071331;28;20100;-62
2021/11/29 09:16:04;;;;;;;9.48;7.15;;;6.00;99.90;;;;;;5070518;28;20052;-62
2021/11/29 09:18:30;;;;;;;31.50;14.02;;;6.10;99.90;;;;;;5064336;28;20078;-65
2021/11/29 09:20:58;;;;;;;16.38;10.68;;;7.00;99.90;;;;;;5074722;28;20089;-64
2021/11/29 09:23:25;;;;;;;8.85;7.05;;;8.30;99.90;;;;;;5072661;28;20051;-64
2021/11/29 09:25:51;;;;;;;11.70;6.72;;;9.10;99.90;;;;;;5073059;28;20035;-65
2021/11/29 09:28:16;;;;;;;12.10;6.18;;;9.10;99.90;;;;;;5071985;28;20024;-62
2021/11/29 09:30:44;;;;;;;10.73;7.28;;;7.40;99.90;;;;;;5087084;28;20047;-62
2021/11/29 09:33:10;;;;;;;10.88;6.78;;;6.90;99.90;;;;;;5091886;28;20446;-63
2021/11/29 09:35:37;;;;;;;12.30;8.70;;;6.20;99.90;;;;;;5069523;28;20124;-77
2021/11/29 09:38:03;;;;;;;12.13;7.97;;;5.80;99.90;;;;;;5071111;28;20037;-79
2021/11/29 09:40:35;;;;;;;16.92;8.18;;;5.60;99.90;;;;;;5067142;28;20051;-62
2021/11/29 09:43:05;;;;;;;;;;;5.10;99.90;;;;;;5070200;28;20073;-61
2021/11/29 09:45:32;;;;;;;12.23;7.47;;;5.00;99.90;;;;;;5082250;28;19908;-63
2021/11/29 09:47:58;;;;;;;13.50;8.15;;;5.00;99.90;;;;;;5070090;28;20037;-62
2021/11/29 09:50:26;;;;;;;12.07;6.53;;;4.90;99.90;;;;;;5087791;28;20035;-61
2021/11/29 09:52:52;;;;;;;9.73;6.95;;;4.80;99.90;;;;;;5091512;28;20204;-61
2021/11/29 09:55:22;;;;;;;17.45;6.75;;;4.70;99.90;;;;;;5085887;28;20381;-60
2021/11/29 09:57:48;;;;;;;11.27;6.50;;;5.60;99.90;;;;;;5052689;28;20047;-61
2021/11/29 10:00:30;;;;;;;15.00;6.82;;;5.70;99.90;;;;;;5067206;28;20035;-61
2021/11/29 10:02:56;;;;;;;9.10;5.65;;;5.40;99.90;;;;;;5069709;28;20583;-62
2021/11/29 10:05:23;;;;;;;9.73;5.05;;;5.10;99.90;;;;;;5070631;28;20123;-62
2021/11/29 10:07:50;;;;;;;13.93;5.78;;;4.90;99.90;;;;;;5068953;28;20036;-62
2021/11/29 10:10:23;;;;;;;16.17;5.50;;;4.90;99.90;;;;;;5074645;28;20024;-62
2021/11/29 10:12:50;;;;;;;14.70;5.68;;;5.00;99.90;;;;;;5067628;28;20054;-61
2021/11/29 10:15:22;;;;;;;22.23;9.10;;;4.70;99.90;;;;;;5063380;28;20346;-60
2021/11/29 10:18:18;;;;;;;12.35;6.45;;;5.90;99.90;;;;;;5069037;28;20076;-61
2021/11/29 10:21:00;;;;;;;14.07;5.80;;;5.70;99.90;;;;;;5078798;28;20028;-60
2021/11/29 10:23:51;;;;;;;13.02;6.40;;;5.20;99.90;;;;;;5082526;28;20051;-61
2021/11/29 10:26:17;;;;;;;10.70;6.60;;;5.00;99.90;;;;;;5070922;28;20032;-65
2021/11/29 10:28:45;;;;;;;10.00;5.00;;;5.00;99.90;;;;;;5076003;28;20401;-61
2021/11/29 10:31:19;;;;;;;13.32;5.90;;;4.90;99.90;;;;;;5094731;28;20051;-62
2021/11/29 10:33:50;;;;;;;10.15;5.95;;;4.90;99.90;;;;;;5076661;28;20020;-61
2021/11/29 10:36:17;;;;;;;10.63;5.43;;;4.90;99.90;;;;;;5094298;28;20178;-61
2021/11/29 10:38:48;;;;;;;9.82;5.32;;;4.80;99.90;;;;;;5094639;28;20046;-61
2021/11/29 10:41:14;;;;;;;10.07;4.60;;;4.80;99.90;;;;;;5094284;28;20024;-75
2021/11/29 10:43:43;;;;;;;11.48;5.32;;;4.80;99.90;;;;;;5076301;28;20454;-63
2021/11/29 10:46:21;;;;;;;8.30;5.18;;;4.80;99.90;;;;;;5094248;28;20024;-61
2021/11/29 10:48:47;;;;;;;12.27;5.60;;;4.70;99.90;;;;;;5076378;28;20470;-62
2021/11/29 10:51:16;;;;;;;16.83;6.13;;;4.70;99.90;;;;;;5094748;28;20040;-62
2021/11/29 10:54:04;;;;;;;9.68;5.35;;;4.60;99.90;;;;;;5076068;28;20388;-61
2021/11/29 10:56:31;;;;;;;9.80;4.80;;;4.50;99.90;;;;;;5075698;28;20369;-61
2021/11/29 10:59:02;;;;;;;11.13;6.05;;;4.50;99.90;;;;;;5093926;28;20032;-62
2021/11/29 11:01:43;;;;;;;11.05;5.50;;;4.60;99.90;;;;;;5093404;28;20115;-61
2021/11/29 11:04:13;;;;;;;8.55;5.00;;;4.70;99.90;;;;;;5094171;28;20035;-62
2021/11/29 11:06:52;;;;;;;21.38;7.80;;;4.50;99.90;;;;;;5093736;28;20123;-61
2021/11/29 11:09:21;;;;;;;9.57;4.82;;;4.60;99.90;;;;;;5093721;28;20031;-61
2021/11/29 11:11:49;;;;;;;6.85;4.50;;;4.60;99.90;;;;;;5094385;28;20032;-62
2021/11/29 11:14:21;;;;;;;12.23;5.13;;;4.60;99.90;;;;;;5075591;28;20046;-76
2021/11/29 11:17:05;;;;;;;12.15;4.90;;;4.60;99.90;;;;;;5076150;28;20433;-61
2021/11/29 11:19:40;;;;;;;9.38;5.75;;;4.60;99.90;;;;;;5075087;28;20119;-61
2021/11/29 11:22:17;;;;;;;10.57;4.93;;;4.70;99.90;;;;;;5094378;28;20051;-61
2021/11/29 11:24:53;;;;;;;7.60;4.55;;;4.60;99.90;;;;;;5075741;28;20051;-61
2021/11/29 11:27:20;;;;;;;8.40;4.72;;;4.70;99.90;;;;;;5093500;28;20028;-62
2021/11/29 11:29:55;;;;;;;9.27;4.78;;;4.70;99.90;;;;;;5094097;28;20075;-62
2021/11/29 11:32:30;;;;;;;18.40;5.05;;;4.60;99.90;;;;;;5075175;28;20020;-62
2021/11/29 11:35:07;;;;;;;11.27;4.88;;;4.70;99.90;;;;;;5094346;28;20028;-62
2021/11/29 11:37:37;;;;;;;8.70;4.63;;;4.70;99.90;;;;;;5075414;28;20119;-62
2021/11/29 11:40:05;;;;;;;7.70;4.75;;;4.70;99.90;;;;;;5093765;28;20035;-61
2021/11/29 11:42:31;;;;;;;15.45;4.90;;;4.70;99.90;;;;;;5093014;28;20024;-61
2021/11/29 11:44:58;;;;;;;9.88;4.70;;;4.70;99.90;;;;;;5075086;28;20491;-62
2021/11/29 11:47:26;;;;;;;8.43;4.13;;;4.70;99.90;;;;;;5092907;28;20054;-61
2021/11/29 11:49:53;;;;;;;8.52;4.15;;;4.70;99.90;;;;;;5075270;28;20028;-61
2021/11/29 11:52:21;;;;;;;6.70;3.75;;;4.80;99.90;;;;;;5092660;28;20107;-62
2021/11/29 11:54:48;;;;;;;9.40;4.53;;;4.90;99.90;;;;;;5075346;28;20020;-62
2021/11/29 11:57:21;;;;;;;18.15;4.93;;;4.90;99.90;;;;;;5075183;28;20032;-62
2021/11/29 12:00:08;;;;;;;7.40;4.65;;;5.00;99.90;;;;;;5075152;28;20020;-61
2021/11/29 12:02:43;;;;;;;13.95;5.60;;;5.00;99.90;;;;;;5074346;28;20020;-61
2021/11/29 12:05:21;;;;;;;9.77;4.47;;;5.00;99.90;;;;;;5074798;28;20115;-61
2021/11/29 12:07:48;;;;;;;7.25;4.35;;;5.00;99.90;;;;;;5093284;28;20086;-62
2021/11/29 12:10:32;;;;;;;12.50;4.30;;;4.90;99.90;;;;;;5093248;28;20093;-62
2021/11/29 12:13:00;;;;;;;7.75;4.57;;;4.90;99.90;;;;;;5093325;28;20075;-62
2021/11/29 12:15:36;;;;;;;8.73;4.25;;;4.90;99.90;;;;;;5074143;28;20128;-63
2021/11/29 12:18:02;;;;;;;4.05;3.33;;;5.00;99.90;;;;;;5074776;28;20040;-60
2021/11/29 12:20:27;;;;;;;6.22;3.90;;;5.00;99.90;;;;;;5092361;28;20036;-63
2021/11/29 12:22:53;;;;;;;12.07;3.15;;;5.00;99.90;;;;;;5074824;28;20078;-61
2021/11/29 12:25:24;;;;;;;6.32;3.72;;;4.90;99.90;;;;;;5092947;28;20024;-62
2021/11/29 12:28:02;;;;;;;8.35;4.22;;;4.80;99.90;;;;;;5074049;28;20028;-62
2021/11/29 12:30:42;;;;;;;10.27;3.95;;;4.90;99.90;;;;;;5092320;28;20051;-61
2021/11/29 12:33:11;;;;;;;8.38;3.72;;;4.80;99.90;;;;;;5092820;28;20035;-62
2021/11/29 12:35:51;;;;;;;8.48;3.60;;;4.80;99.90;;;;;;5073698;28;20056;-61
2021/11/29 12:38:21;;;;;;;8.85;4.75;;;4.80;99.90;;;;;;5092696;28;20074;-62
2021/11/29 12:41:05;;;;;;;5.95;3.05;;;5.00;99.90;;;;;;5092532;28;20378;-61
2021/11/29 12:43:34;;;;;;;10.23;3.80;;;5.00;99.90;;;;;;5074189;28;20326;-62
2021/11/29 12:46:16;;;;;;;7.70;3.95;;;5.00;99.90;;;;;;5073684;28;20052;-62
2021/11/29 12:48:41;;;;;;;6.72;3.67;;;5.00;99.90;;;;;;5092276;28;20062;-62